Time;durP1;ratioP1;P1;durP2;ratioP2;P2;SDS_P1;SDS_P2;PMS_P1;PMS_P2;Temp;Humidity;BMP_temperature;BMP_pressure;BME280_temperature;BME280_humidity;BME280_pressure;Samples;Min_cycle;Max_cycle;Signal;HPM_P1;HPM_P2
2021/03/14 00:00:53;;;;;;;25.23;15.30;;;;;;;3.18;79.36;98980.71;129099;1105;22890;-65
2021/03/14 00:03:24;;;;;;;24.15;13.95;;;;;;;3.18;79.12;98969.95;129191;1105;22934;-65
2021/03/14 00:05:52;;;;;;;21.85;13.55;;;;;;;3.19;79.19;98976.16;129082;1105;22891;-66
2021/03/14 00:08:23;;;;;;;21.05;13.00;;;;;;;3.20;78.26;98972.42;129288;1105;22880;-65
2021/03/14 00:10:55;;;;;;;20.25;13.50;;;;;;;3.18;79.06;98972.64;128845;1105;23868;-65
2021/03/14 00:13:27;;;;;;;22.05;14.55;;;;;;;3.18;78.88;98969.95;129225;1105;23353;-65
2021/03/14 00:15:55;;;;;;;21.45;13.55;;;;;;;3.08;78.36;98950.81;128895;1105;27165;-65
2021/03/14 00:18:33;;;;;;;19.73;12.77;;;;;;;3.14;78.57;98968.77;129243;1105;22901;-64
2021/03/14 00:21:01;;;;;;;18.80;11.75;;;;;;;3.13;78.39;98963.61;128768;1105;23098;-65
2021/03/14 00:23:28;;;;;;;20.10;11.05;;;;;;;3.09;78.23;98959.70;129225;1105;22884;-65
2021/03/14 00:25:57;;;;;;;16.20;10.95;;;;;;;3.07;79.33;98951.86;129235;1105;22975;-64
2021/03/14 00:31:09;;;;;;;18.60;11.90;;;;;;;3.01;78.29;98952.77;124270;1109;27448;-65
2021/03/14 00:33:37;;;;;;;20.43;12.97;;;;;;;2.99;79.18;98948.64;124096;1109;23254;-65
2021/03/14 00:36:06;;;;;;;20.70;13.10;;;;;;;2.97;78.71;98951.56;128319;1110;22855;-65
2021/03/14 00:38:33;;;;;;;18.97;11.77;;;;;;;2.97;78.16;98948.87;128148;1109;22868;-65
2021/03/14 00:41:01;;;;;;;19.43;12.93;;;;;;;2.95;79.29;98947.44;128327;1109;22856;-65
2021/03/14 00:43:30;;;;;;;17.90;12.70;;;;;;;2.93;79.11;98946.83;128237;1111;22955;-65
2021/03/14 00:45:57;;;;;;;22.90;14.00;;;;;;;2.90;79.15;98953.48;128308;1110;22897;-66
2021/03/14 00:48:32;;;;;;;19.77;13.03;;;;;;;2.90;79.13;98945.41;128195;1110;22875;-65
2021/03/14 00:51:00;;;;;;;21.93;13.67;;;;;;;2.88;78.37;98944.83;128312;1110;22923;-65
2021/03/14 00:53:35;;;;;;;22.45;13.35;;;;;;;2.86;78.87;98943.41;128191;1112;22909;-65
2021/03/14 00:56:03;;;;;;;20.57;12.70;;;;;;;2.82;79.06;98941.16;128343;1110;22865;-65
2021/03/14 00:58:32;;;;;;;18.97;11.87;;;;;;;2.81;78.90;98944.89;128139;1112;22888;-65
2021/03/14 01:00:59;;;;;;;20.10;11.97;;;;;;;2.80;79.36;98948.62;128322;1110;23846;-65
2021/03/14 01:03:28;;;;;;;19.37;11.60;;;;;;;2.80;78.99;98951.31;128125;1111;22880;-65
2021/03/14 01:05:55;;;;;;;16.95;11.60;;;;;;;2.80;78.97;98950.48;128320;1111;22890;-65
2021/03/14 01:08:23;;;;;;;19.27;12.00;;;;;;;2.81;79.47;98947.58;128193;1111;23354;-65
2021/03/14 01:10:51;;;;;;;16.20;11.45;;;;;;;2.80;78.82;98945.10;128329;1111;22949;-66
2021/03/14 01:13:30;;;;;;;18.70;12.47;;;;;;;2.79;78.96;98941.59;128226;1111;23543;-66
2021/03/14 01:15:58;;;;;;;20.20;13.80;;;;;;;2.79;79.22;98938.08;128326;1111;22855;-65
2021/03/14 01:18:26;;;;;;;19.25;12.40;;;;;;;2.78;78.90;98944.50;128171;1111;23770;-65
2021/03/14 01:20:53;;;;;;;19.20;13.57;;;;;;;2.76;79.14;98946.58;128336;1111;23522;-65
2021/03/14 01:23:20;;;;;;;21.55;13.15;;;;;;;2.74;79.38;98937.94;128214;1111;22881;-65
2021/03/14 01:25:48;;;;;;;19.90;12.87;;;;;;;2.72;78.88;98937.33;127162;1110;23219;-62
2021/03/14 01:28:15;;;;;;;19.85;13.50;;;;;;;2.70;78.99;98934.03;124112;1111;23063;-62
2021/03/14 01:30:43;;;;;;;19.80;12.70;;;;;;;2.68;79.81;98939.64;124005;1111;23073;-63
2021/03/14 01:33:11;;;;;;;24.47;13.93;;;;;;;2.65;78.84;98928.48;124103;1111;23194;-63
2021/03/14 01:35:38;;;;;;;23.77;14.17;;;;;;;2.64;79.51;98926.84;124059;1112;23229;-64
2021/03/14 01:38:06;;;;;;;18.10;12.13;;;;;;;2.60;79.40;98929.14;128270;1112;22935;-64
2021/03/14 01:40:34;;;;;;;17.67;12.20;;;;;;;2.58;79.13;98917.81;128198;1110;22973;-64
2021/03/14 01:43:02;;;;;;;17.37;11.87;;;;;;;2.55;79.90;98917.42;128347;1110;23067;-64
2021/03/14 01:45:29;;;;;;;19.05;12.70;;;;;;;2.54;79.93;98918.47;128200;1110;22868;-64
2021/03/14 01:47:58;;;;;;;18.87;12.30;;;;;;;2.49;79.89;98909.19;128231;1110;22911;-65
2021/03/14 01:50:26;;;;;;;20.47;13.40;;;;;;;2.47;79.66;98910.45;128203;1111;23002;-64
2021/03/14 01:52:54;;;;;;;20.50;13.05;;;;;;;2.43;79.70;98912.78;128291;1110;22825;-65
2021/03/14 01:55:22;;;;;;;18.80;12.83;;;;;;;2.41;79.93;98912.17;128210;1111;22928;-64
2021/03/14 01:58:13;;;;;;;19.83;14.10;;;;;;;2.40;79.88;98912.39;128307;1111;23008;-64
2021/03/14 02:00:40;;;;;;;17.90;11.90;;;;;;;2.37;79.95;98913.64;128201;1110;22857;-64
2021/03/14 02:03:09;;;;;;;17.37;11.40;;;;;;;2.36;80.53;98914.69;128316;1110;22847;-65
2021/03/14 02:05:37;;;;;;;20.05;13.10;;;;;;;2.37;80.67;98916.33;127698;1110;23020;-65
2021/03/14 02:08:05;;;;;;;17.33;11.90;;;;;;;2.38;80.76;98923.36;128257;1111;23222;-64
2021/03/14 02:10:33;;;;;;;22.30;12.45;;;;;;;2.35;80.40;98929.16;128153;1111;22840;-64
2021/03/14 02:13:18;;;;;;;17.50;12.30;;;;;;;2.36;79.96;98941.56;128318;1111;22832;-64
2021/03/14 02:16:09;;;;;;;18.37;11.43;;;;;;;2.36;80.75;98935.36;128198;1112;22993;-64
2021/03/14 02:18:39;;;;;;;20.63;12.60;;;;;;;2.36;80.49;98938.05;128249;1111;22890;-64
2021/03/14 02:21:06;;;;;;;20.80;12.50;;;;;;;2.36;80.12;98938.05;128173;1111;23555;-65
2021/03/14 02:23:41;;;;;;;16.10;11.77;;;;;;;2.35;80.13;98937.23;128314;1111;22823;-64
2021/03/14 02:26:14;;;;;;;23.33;12.50;;;;;;;2.32;80.21;98926.09;128204;1111;23000;-64
2021/03/14 02:28:42;;;;;;;19.87;12.07;;;;;;;2.31;80.61;98927.16;128275;1112;23634;-64
2021/03/14 02:31:10;;;;;;;19.50;12.20;;;;;;;2.27;80.11;98934.83;128195;1111;22937;-64
2021/03/14 02:33:38;;;;;;;18.63;12.77;;;;;;;2.26;80.40;98926.98;128334;1112;23009;-64
2021/03/14 02:36:07;;;;;;;17.45;11.35;;;;;;;2.23;80.75;98930.92;128155;1111;22893;-64
2021/03/14 02:38:35;;;;;;;20.40;11.90;;;;;;;2.22;80.61;98929.27;128328;1111;22891;-64
2021/03/14 02:41:03;;;;;;;19.10;12.23;;;;;;;2.22;81.15;98929.27;128216;1111;22924;-64
2021/03/14 02:43:31;;;;;;;18.77;12.13;;;;;;;2.20;81.24;98927.84;128202;1111;24371;-64
2021/03/14 02:45:59;;;;;;;19.13;12.57;;;;;;;2.18;81.63;98928.06;128293;1111;22904;-64
2021/03/14 02:48:26;;;;;;;20.27;12.17;;;;;;;2.17;81.19;98931.78;128101;1111;23037;-65
2021/03/14 02:50:59;;;;;;;17.33;11.73;;;;;;;2.19;81.69;98940.45;128324;1111;23058;-64
2021/03/14 02:53:26;;;;;;;17.63;12.30;;;;;;;2.20;81.43;98934.04;128207;1111;22819;-64
2021/03/14 02:55:54;;;;;;;20.47;13.03;;;;;;;2.18;81.38;98930.74;128302;1112;22847;-64
2021/03/14 02:58:22;;;;;;;19.40;12.57;;;;;;;2.16;81.46;98940.91;128147;1111;24135;-64
2021/03/14 03:00:50;;;;;;;22.20;13.90;;;;;;;2.12;82.13;98943.20;128365;1111;22839;-64
2021/03/14 03:03:22;;;;;;;18.03;13.37;;;;;;;2.09;82.06;98946.32;128170;1111;22852;-64
2021/03/14 03:05:50;;;;;;;20.13;14.07;;;;;;;2.07;81.44;98948.40;128353;1111;22843;-64
2021/03/14 03:08:18;;;;;;;19.45;14.35;;;;;;;2.07;81.81;98951.09;128116;1111;23417;-64
2021/03/14 03:10:46;;;;;;;21.90;14.83;;;;;;;2.05;81.67;98941.59;128282;1111;22930;-64
2021/03/14 03:13:15;;;;;;;22.40;14.10;;;;;;;2.02;81.58;98945.53;128196;1111;22848;-65
2021/03/14 03:15:43;;;;;;;20.40;13.50;;;;;;;1.99;81.39;98937.11;128334;1112;24368;-64
2021/03/14 03:18:10;;;;;;;22.13;15.43;;;;;;;1.96;81.41;98946.41;128964;1105;23009;-64
2021/03/14 03:20:38;;;;;;;28.90;14.50;;;;;;;1.94;81.90;98944.98;128446;1106;22856;-65
2021/03/14 03:23:06;;;;;;;27.43;16.37;;;;;;;1.91;82.48;98945.41;128372;1105;23059;-63
2021/03/14 03:25:33;;;;;;;27.63;17.83;;;;;;;1.90;81.91;98958.02;129273;1105;22841;-63
2021/03/14 03:28:01;;;;;;;26.00;17.25;;;;;;;1.72;82.14;98931.08;129184;1105;23614;-63
2021/03/14 03:30:29;;;;;;;33.80;19.43;;;;;;;1.86;82.30;98954.13;129219;1105;22839;-65
2021/03/14 03:32:56;;;;;;;29.20;18.25;;;;;;;1.86;81.91;98951.45;129280;1105;22847;-64
2021/03/14 03:35:25;;;;;;;32.05;19.60;;;;;;;1.83;82.49;98954.56;129122;1105;22829;-64
2021/03/14 03:37:53;;;;;;;26.13;17.50;;;;;;;1.82;83.19;98938.66;129269;1105;22981;-63
2021/03/14 03:40:22;;;;;;;31.30;20.85;;;;;;;1.81;82.23;98935.14;129131;1105;22891;-64
2021/03/14 03:43:04;;;;;;;28.80;18.40;;;;;;;1.81;82.10;98929.77;129286;1105;22888;-64
2021/03/14 03:45:34;;;;;;;31.67;19.33;;;;;;;1.83;83.40;98924.19;129085;1104;22824;-64
2021/03/14 03:48:01;;;;;;;36.03;20.53;;;;;;;1.81;83.59;98918.20;129220;1105;23671;-63
2021/03/14 03:50:44;;;;;;;34.15;20.05;;;;;;;1.81;83.50;98926.27;129115;1105;23685;-64
2021/03/14 03:53:12;;;;;;;34.80;20.23;;;;;;;1.79;83.26;98918.42;129169;1105;23906;-63
2021/03/14 03:55:40;;;;;;;33.40;19.90;;;;;;;1.78;83.13;98916.77;129161;1105;22871;-64
2021/03/14 03:58:07;;;;;;;38.27;23.03;;;;;;;1.76;83.66;98924.22;129092;1105;23551;-64
2021/03/14 04:00:34;;;;;;;33.77;20.93;;;;;;;1.73;83.48;98920.09;129019;1105;22852;-64
2021/03/14 04:03:02;;;;;;;38.80;22.57;;;;;;;1.74;83.02;98911.00;129226;1105;24649;-63
2021/03/14 04:05:30;;;;;;;34.60;20.65;;;;;;;1.76;83.56;98916.16;127887;1105;26025;-65
2021/03/14 04:07:57;;;;;;;36.85;20.90;;;;;;;1.78;83.99;98916.77;129201;1105;22892;-63
2021/03/14 04:10:28;;;;;;;37.85;21.75;;;;;;;1.76;83.87;98914.30;128401;1105;23617;-63
2021/03/14 04:12:56;;;;;;;38.10;22.93;;;;;;;1.75;83.90;98912.65;129208;1105;22962;-63
2021/03/14 04:15:25;;;;;;;38.07;22.23;;;;;;;1.76;84.12;98908.10;129007;1105;23584;-65
2021/03/14 04:17:53;;;;;;;40.60;22.00;;;;;;;1.76;84.36;98903.55;129305;1104;22813;-64
2021/03/14 04:20:32;;;;;;;38.40;22.45;;;;;;;1.76;84.11;98897.36;129049;1106;23045;-64
2021/03/14 04:23:04;;;;;;;37.80;22.30;;;;;;;1.75;83.50;98891.16;128865;1105;23816;-66
2021/03/14 04:25:31;;;;;;;39.30;22.00;;;;;;;1.74;84.06;98897.58;129085;1105;22928;-64
2021/03/14 04:27:59;;;;;;;36.60;21.05;;;;;;;1.71;83.85;98892.66;129273;1105;23621;-67
2021/03/14 04:30:27;;;;;;;37.15;20.60;;;;;;;1.70;83.95;98896.38;129169;1105;22885;-64
2021/03/14 04:32:54;;;;;;;40.03;21.67;;;;;;;1.70;84.51;98892.88;129215;1105;23412;-64
2021/03/14 04:35:22;;;;;;;38.60;21.83;;;;;;;1.69;84.58;98899.28;129266;1105;22855;-64
2021/03/14 04:37:49;;;;;;;34.10;20.15;;;;;;;1.68;84.12;98901.14;128942;1105;22953;-64
2021/03/14 04:40:17;;;;;;;42.85;22.70;;;;;;;1.67;84.45;98891.44;129267;1105;22834;-64
2021/03/14 04:42:47;;;;;;;35.70;21.00;;;;;;;1.69;84.05;98900.11;129120;1105;22842;-64
2021/03/14 04:45:15;;;;;;;37.07;22.13;;;;;;;1.70;83.82;98906.30;129189;1105;24136;-64
2021/03/14 04:47:43;;;;;;;46.23;25.53;;;;;;;1.72;83.68;98912.28;129184;1105;22969;-64
2021/03/14 04:50:13;;;;;;;36.20;19.45;;;;;;;1.74;84.40;98911.00;129262;1105;22890;-64
2021/03/14 04:52:42;;;;;;;35.00;19.80;;;;;;;1.76;84.43;98910.78;128983;1105;22871;-64
2021/03/14 04:55:10;;;;;;;30.90;18.95;;;;;;;1.78;84.57;98912.22;129206;1105;24119;-65
2021/03/14 04:57:39;;;;;;;34.00;21.35;;;;;;;1.80;84.90;98921.93;129121;1105;22860;-65
2021/03/14 05:00:09;;;;;;;37.40;20.30;;;;;;;1.78;84.77;98920.28;129139;1105;22833;-65
2021/03/14 05:02:37;;;;;;;34.00;20.90;;;;;;;1.79;84.17;98913.05;129161;1105;22888;-64
2021/03/14 05:05:05;;;;;;;34.90;21.00;;;;;;;1.77;83.68;98907.89;129211;1105;23003;-64
2021/03/14 05:07:36;;;;;;;31.40;18.65;;;;;;;1.75;84.53;98914.52;129132;1105;22841;-64
2021/03/14 05:10:07;;;;;;;29.17;16.97;;;;;;;1.74;84.74;98910.17;129229;1105;22863;-64
2021/03/14 05:12:35;;;;;;;32.00;18.10;;;;;;;1.74;84.30;98913.69;129154;1105;22883;-65
2021/03/14 05:15:03;;;;;;;28.35;17.15;;;;;;;1.74;84.70;98921.74;129234;1105;22889;-65
2021/03/14 05:17:32;;;;;;;26.60;17.60;;;;;;;1.72;83.82;98923.84;128907;1105;22825;-64
2021/03/14 05:19:59;;;;;;;27.30;15.67;;;;;;;1.70;84.31;98925.92;129251;1105;23797;-64
2021/03/14 05:22:27;;;;;;;24.50;14.65;;;;;;;1.68;84.15;98924.48;129145;1105;22833;-64
2021/03/14 05:24:54;;;;;;;24.35;15.15;;;;;;;1.68;83.97;98929.86;129026;1105;23650;-64
2021/03/14 05:27:22;;;;;;;21.35;14.45;;;;;;;1.68;83.96;98933.36;128593;1105;23761;-64
2021/03/14 05:29:50;;;;;;;23.75;13.40;;;;;;;1.71;84.17;98938.31;128372;1105;22940;-64
2021/03/14 05:32:17;;;;;;;22.30;14.45;;;;;;;1.74;84.31;98940.54;129210;1105;23419;-64
2021/03/14 05:34:45;;;;;;;21.67;14.03;;;;;;;1.75;84.41;98936.81;129177;1105;22854;-64
2021/03/14 05:37:13;;;;;;;23.63;14.03;;;;;;;1.76;84.68;98927.72;129266;1105;22962;-64
2021/03/14 05:39:40;;;;;;;22.67;13.50;;;;;;;1.76;84.92;98930.41;129144;1105;23499;-64
2021/03/14 05:42:08;;;;;;;22.47;14.03;;;;;;;1.74;84.84;98927.11;129238;1105;22884;-64
2021/03/14 05:44:36;;;;;;;21.10;13.50;;;;;;;1.74;84.76;98927.11;129161;1105;22824;-64
2021/03/14 05:47:03;;;;;;;23.07;14.10;;;;;;;1.75;84.31;98935.99;129196;1105;22875;-64
2021/03/14 05:49:31;;;;;;;19.05;12.35;;;;;;;1.73;84.39;98927.36;128374;1105;23071;-64
2021/03/14 05:52:17;;;;;;;19.43;12.07;;;;;;;1.73;84.58;98927.36;129227;1105;22894;-64
2021/03/14 05:54:46;;;;;;;19.30;11.95;;;;;;;1.72;84.10;98931.08;129145;1105;22826;-63
2021/03/14 05:57:16;;;;;;;18.70;12.20;;;;;;;1.77;84.75;98931.23;129214;1105;22900;-64
2021/03/14 05:59:50;;;;;;;16.13;11.13;;;;;;;1.79;84.45;98915.73;129032;1105;22831;-64
2021/03/14 06:02:20;;;;;;;21.10;12.50;;;;;;;1.84;83.97;98925.84;129246;1105;23560;-65
2021/03/14 06:04:49;;;;;;;21.13;12.70;;;;;;;1.89;85.04;98924.13;129118;1105;22854;-64
2021/03/14 06:07:17;;;;;;;19.10;12.55;;;;;;;1.92;84.98;98909.45;129199;1105;23631;-64
2021/03/14 06:09:44;;;;;;;15.60;11.50;;;;;;;1.95;83.70;98915.22;129091;1105;22821;-64
2021/03/14 06:12:12;;;;;;;16.60;11.40;;;;;;;1.96;83.64;98922.23;129223;1105;23558;-64
2021/03/14 06:14:40;;;;;;;18.65;11.35;;;;;;;1.99;83.62;98915.61;129189;1103;22879;-64
2021/03/14 06:17:07;;;;;;;14.50;10.97;;;;;;;2.01;84.44;98903.61;129286;1105;22836;-64
2021/03/14 06:19:36;;;;;;;19.57;11.37;;;;;;;2.03;84.14;98911.42;129243;1105;22801;-64
2021/03/14 06:22:17;;;;;;;16.50;11.10;;;;;;;2.05;83.54;98903.98;129228;1105;22959;-64
2021/03/14 06:24:45;;;;;;;16.70;11.15;;;;;;;2.05;83.93;98918.23;129311;1105;22874;-64
2021/03/14 06:27:51;;;;;;;18.50;11.25;;;;;;;2.04;83.87;98911.21;129052;1105;22867;-64
2021/03/14 06:30:26;;;;;;;17.30;11.17;;;;;;;2.03;83.97;98896.13;129112;1105;23469;-64
2021/03/14 06:33:03;;;;;;;17.00;11.25;;;;;;;2.04;84.27;98897.78;129278;1105;23584;-65
2021/03/14 06:35:57;;;;;;;16.65;11.05;;;;;;;2.08;83.60;98909.74;129094;1105;23311;-65
2021/03/14 06:38:26;;;;;;;17.05;11.55;;;;;;;2.10;83.84;98907.66;129262;1105;22837;-64
2021/03/14 06:41:16;;;;;;;17.27;11.17;;;;;;;2.12;83.29;98908.27;129121;1104;23007;-64
2021/03/14 06:43:56;;;;;;;17.43;10.57;;;;;;;2.17;84.38;98917.52;129297;1106;22828;-65
2021/03/14 06:46:25;;;;;;;14.40;9.90;;;;;;;2.20;83.79;98915.23;126929;1106;26556;-65
2021/03/14 06:49:06;;;;;;;19.00;11.37;;;;;;;2.22;84.07;98921.21;129312;1105;22922;-66
2021/03/14 06:51:35;;;;;;;16.60;11.65;;;;;;;2.26;83.38;98916.23;129135;1105;22976;-65
2021/03/14 06:54:15;;;;;;;17.33;11.70;;;;;;;2.32;83.35;98929.59;129265;1105;22832;-66
2021/03/14 06:56:59;;;;;;;17.75;10.90;;;;;;;2.39;83.82;98924.18;129105;1105;23040;-66
2021/03/14 06:59:28;;;;;;;15.50;10.65;;;;;;;2.41;83.36;98919.41;129247;1104;22858;-66
2021/03/14 07:01:56;;;;;;;20.30;11.50;;;;;;;2.37;83.62;98912.81;129113;1104;24694;-65
2021/03/14 07:04:36;;;;;;;17.17;10.90;;;;;;;2.53;83.17;98930.27;129161;1105;22948;-65
2021/03/14 07:07:04;;;;;;;14.07;9.90;;;;;;;2.59;83.31;98929.39;129066;1105;22905;-65
2021/03/14 07:09:32;;;;;;;14.43;9.97;;;;;;;2.62;82.88;98945.06;129212;1104;24035;-66
2021/03/14 07:12:19;;;;;;;12.07;8.57;;;;;;;2.63;82.51;98944.02;129078;1105;22869;-65
2021/03/14 07:14:47;;;;;;;14.10;9.25;;;;;;;2.63;82.72;98960.16;129201;1105;22943;-65
2021/03/14 07:17:29;;;;;;;12.07;8.60;;;;;;;2.64;82.58;98959.94;129078;1105;23537;-63
2021/03/14 07:20:27;;;;;;;12.73;8.03;;;;;;;2.64;82.71;98962.63;129193;1105;22985;-63
2021/03/14 07:23:01;;;;;;;10.37;7.97;;;;;;;2.64;81.72;98961.80;128288;1108;23010;-62
2021/03/14 07:25:29;;;;;;;11.20;7.97;;;;;;;2.62;81.86;98963.89;128288;1108;22893;-63
2021/03/14 07:27:57;;;;;;;13.73;8.63;;;;;;;2.63;81.85;98966.36;128238;1108;23005;-63
2021/03/14 07:30:26;;;;;;;12.33;8.57;;;;;;;2.62;81.76;98967.40;128310;1108;22987;-63
2021/03/14 07:32:54;;;;;;;11.15;8.25;;;;;;;2.63;82.41;98963.67;128182;1109;23073;-63
2021/03/14 07:35:22;;;;;;;12.27;9.43;;;;;;;2.65;81.82;98955.38;128316;1108;23005;-63
2021/03/14 07:37:50;;;;;;;12.30;8.57;;;;;;;2.66;82.06;98955.16;128249;1109;22827;-63
2021/03/14 07:40:19;;;;;;;13.15;8.80;;;;;;;2.70;81.70;98955.55;128278;1108;23009;-63
2021/03/14 07:42:47;;;;;;;12.87;8.20;;;;;;;2.74;81.65;98949.48;128322;1108;22854;-63
2021/03/14 07:45:16;;;;;;;14.15;7.60;;;;;;;2.80;81.73;98953.17;128205;1108;24223;-65
2021/03/14 07:47:45;;;;;;;10.00;7.40;;;;;;;2.83;81.83;98950.87;128358;1107;22874;-66
2021/03/14 07:50:18;;;;;;;12.00;8.35;;;;;;;2.90;82.07;98950.78;128279;1108;23456;-65
2021/03/14 07:52:45;;;;;;;10.10;7.70;;;;;;;2.95;81.65;98948.27;128338;1108;22930;-65
2021/03/14 07:55:14;;;;;;;11.70;8.80;;;;;;;2.97;81.11;98945.35;128254;1108;22822;-65
2021/03/14 07:57:45;;;;;;;10.37;7.63;;;;;;;2.99;80.91;98944.09;128347;1108;23475;-65
2021/03/14 08:00:29;;;;;;;10.23;7.57;;;;;;;3.02;81.15;98940.13;128864;1105;23874;-65
2021/03/14 08:03:01;;;;;;;10.15;7.50;;;;;;;3.03;80.67;98945.27;129191;1105;24044;-65
2021/03/14 08:05:41;;;;;;;11.17;7.93;;;;;;;3.05;80.46;98935.11;129113;1105;22872;-65
2021/03/14 08:08:09;;;;;;;10.40;7.40;;;;;;;3.06;81.14;98931.37;129269;1105;23108;-66
2021/03/14 08:10:37;;;;;;;12.05;7.90;;;;;;;3.09;80.78;98930.92;129137;1105;23387;-65
2021/03/14 08:13:05;;;;;;;10.27;7.40;;;;;;;3.13;80.88;98926.75;129244;1104;22897;-65
2021/03/14 08:15:33;;;;;;;12.30;7.80;;;;;;;3.20;80.85;98929.34;129099;1105;23403;-66
2021/03/14 08:18:02;;;;;;;10.97;7.93;;;;;;;3.26;81.27;98935.72;129223;1105;22880;-65
2021/03/14 08:20:46;;;;;;;13.60;8.00;;;;;;;3.31;80.95;98917.03;129108;1104;23753;-66
2021/03/14 08:23:18;;;;;;;12.15;8.45;;;;;;;3.37;80.64;98919.62;129247;1105;22885;-65
2021/03/14 08:25:47;;;;;;;11.35;7.10;;;;;;;3.45;80.49;98926.58;129106;1105;22847;-63
2021/03/14 08:28:26;;;;;;;10.95;7.90;;;;;;;3.50;80.86;98927.52;129195;1105;24274;-63
2021/03/14 08:30:58;;;;;;;11.53;7.47;;;;;;;3.55;80.41;98930.38;129078;1105;22917;-63
2021/03/14 08:33:27;;;;;;;12.35;8.30;;;;;;;3.62;79.78;98932.96;129156;1105;22839;-64
2021/03/14 08:36:09;;;;;;;11.85;8.55;;;;;;;3.70;80.35;98935.36;129016;1104;22802;-64
2021/03/14 08:38:48;;;;;;;9.97;7.80;;;;;;;3.76;79.37;98945.20;129155;1105;22990;-64
2021/03/14 08:41:23;;;;;;;10.95;7.65;;;;;;;3.82;79.53;98940.78;129093;1105;23849;-63
2021/03/14 08:43:59;;;;;;;11.65;7.80;;;;;;;3.84;79.47;98950.30;129235;1105;22829;-65
2021/03/14 08:46:45;;;;;;;11.50;6.33;;;;;;;3.86;78.82;98950.06;129111;1105;22909;-63
2021/03/14 08:49:18;;;;;;;9.20;6.90;;;;;;;3.87;79.00;98951.71;129153;1105;22891;-63
2021/03/14 08:51:45;;;;;;;13.25;8.60;;;;;;;3.87;78.39;98952.53;129090;1105;24194;-63
2021/03/14 08:54:54;;;;;;;9.50;7.37;;;;;;;3.86;78.65;98958.97;129193;1105;22852;-63
2021/03/14 08:57:24;;;;;;;8.77;6.33;;;;;;;3.86;78.76;98964.36;129131;1105;23695;-63
2021/03/14 08:59:54;;;;;;;9.85;7.60;;;;;;;3.85;78.16;98969.98;129209;1105;22799;-63
2021/03/14 09:02:30;;;;;;;9.80;7.80;;;;;;;3.86;78.35;98960.84;129133;1105;22851;-63
2021/03/14 09:05:32;;;;;;;10.35;7.20;;;;;;;3.86;77.96;98963.54;129249;1105;22853;-63
2021/03/14 09:08:01;;;;;;;9.53;6.70;;;;;;;3.84;78.27;98960.25;129173;1105;22898;-63
2021/03/14 09:10:35;;;;;;;13.30;7.40;;;;;;;3.83;77.98;98962.12;129262;1105;23605;-64
2021/03/14 09:13:28;;;;;;;10.10;6.85;;;;;;;3.84;78.40;98968.33;129119;1105;23406;-63
2021/03/14 09:16:41;;;;;;;13.80;8.80;;;;;;;3.83;78.81;98955.91;129257;1105;23005;-63
2021/03/14 09:19:09;;;;;;;13.90;7.85;;;;;;;3.82;78.48;98955.08;129260;1105;22886;-63
2021/03/14 09:21:50;;;;;;;10.35;7.20;;;;;;;3.82;78.74;98944.30;129250;1105;22992;-64
2021/03/14 09:24:33;;;;;;;11.80;8.00;;;;;;;3.80;78.80;98941.02;129270;1104;22838;-64
2021/03/14 09:27:11;;;;;;;13.25;8.35;;;;;;;3.81;78.38;98937.27;129067;1106;23968;-64
2021/03/14 09:29:42;;;;;;;11.90;8.27;;;;;;;3.79;78.83;98928.59;129246;1105;22942;-63
2021/03/14 09:32:35;;;;;;;11.80;8.40;;;;;;;3.82;78.66;98932.70;129159;1105;22901;-63
2021/03/14 09:35:22;;;;;;;14.50;10.30;;;;;;;3.85;78.67;98922.30;129227;1105;25212;-63
2021/03/14 09:37:54;;;;;;;11.30;8.75;;;;;;;3.91;78.80;98917.84;129139;1105;23842;-64
2021/03/14 09:40:28;;;;;;;15.25;10.35;;;;;;;3.95;78.84;98918.21;129248;1105;22892;-64
2021/03/14 09:43:18;;;;;;;11.70;8.50;;;;;;;3.98;78.71;98923.97;129170;1105;22956;-63
2021/03/14 09:46:02;;;;;;;11.15;7.80;;;;;;;4.04;78.34;98919.55;129284;1105;22852;-64
2021/03/14 09:48:33;;;;;;;10.00;6.65;;;;;;;4.09;78.50;98916.96;129108;1105;22812;-64
2021/03/14 09:51:07;;;;;;;10.40;8.27;;;;;;;4.14;78.71;98923.31;129280;1104;23363;-63
2021/03/14 09:53:55;;;;;;;28.67;15.87;;;;;;;4.21;78.07;98920.50;129147;1105;23871;-63
2021/03/14 09:56:29;;;;;;;65.05;25.75;;;;;;;4.27;78.28;98924.98;129230;1104;23367;-64
2021/03/14 09:59:25;;;;;;;14.27;9.43;;;;;;;4.32;78.07;98919.72;129172;1105;22968;-63
2021/03/14 10:02:00;;;;;;;38.75;14.50;;;;;;;4.34;77.19;98914.89;129123;1105;23669;-64
2021/03/14 10:04:30;;;;;;;19.00;11.77;;;;;;;4.34;77.37;98911.37;128407;1105;22939;-63
2021/03/14 10:07:04;;;;;;;17.10;10.53;;;;;;;4.34;77.07;98914.89;125469;1106;23053;-66
2021/03/14 10:09:32;;;;;;;14.33;9.60;;;;;;;4.32;76.79;98906.23;128990;1105;22930;-65
2021/03/14 10:12:14;;;;;;;14.40;9.10;;;;;;;4.30;76.74;98918.30;128542;1106;23399;-64
2021/03/14 10:14:44;;;;;;;16.77;10.40;;;;;;;4.28;77.14;98910.44;128392;1105;22848;-65
2021/03/14 10:17:12;;;;;;;14.20;10.03;;;;;;;4.29;76.89;98911.27;128429;1106;23041;-64
2021/03/14 10:19:40;;;;;;;13.80;10.00;;;;;;;4.28;77.10;98899.66;128463;1106;23546;-64
2021/03/14 10:22:09;;;;;;;13.70;10.20;;;;;;;4.29;76.65;98911.27;128460;1106;23037;-64
2021/03/14 10:25:03;;;;;;;16.90;10.83;;;;;;;4.25;76.94;98890.16;128204;1107;22894;-65
2021/03/14 10:27:39;;;;;;;14.85;10.03;;;;;;;4.24;77.17;98899.30;128646;1105;22956;-65
2021/03/14 10:30:21;;;;;;;15.30;10.25;;;;;;;4.25;76.92;98889.33;128349;1105;22897;-64
2021/03/14 10:33:06;;;;;;;16.70;11.10;;;;;;;4.26;76.67;98883.71;128738;1105;23017;-64
2021/03/14 10:35:36;;;;;;;13.45;9.00;;;;;;;4.31;77.29;98884.89;129183;1105;23757;-64
2021/03/14 10:38:19;;;;;;;14.40;9.70;;;;;;;4.35;77.14;98872.56;129220;1105;22902;-65
2021/03/14 10:40:50;;;;;;;14.67;10.43;;;;;;;4.42;77.00;98879.50;129067;1105;22882;-65
2021/03/14 10:43:25;;;;;;;15.30;10.25;;;;;;;4.47;77.20;98876.11;129333;1106;22810;-65
2021/03/14 10:46:03;;;;;;;14.37;11.30;;;;;;;4.53;77.35;98870.59;129109;1105;22860;-64
2021/03/14 10:48:30;;;;;;;16.17;11.30;;;;;;;4.57;77.48;98868.25;129284;1106;22879;-64
2021/03/14 10:51:02;;;;;;;20.47;12.50;;;;;;;4.61;77.25;98872.95;129194;1105;23419;-65
2021/03/14 10:53:30;;;;;;;19.30;12.15;;;;;;;4.63;77.15;98865.41;128941;1105;22909;-65
2021/03/14 10:56:12;;;;;;;18.63;11.40;;;;;;;4.66;76.57;98852.51;129059;1105;22909;-65
2021/03/14 10:58:44;;;;;;;17.37;11.53;;;;;;;4.65;76.21;98851.69;129205;1105;22872;-65
2021/03/14 11:01:30;;;;;;;15.37;11.03;;;;;;;4.61;76.28;98851.36;129116;1105;22853;-66
2021/03/14 11:04:17;;;;;;;16.97;11.97;;;;;;;4.59;76.50;98856.17;129331;1105;22804;-65
2021/03/14 11:06:51;;;;;;;24.50;12.75;;;;;;;4.59;76.13;98856.17;128447;1105;22960;-65
2021/03/14 11:09:26;;;;;;;16.63;12.50;;;;;;;4.56;76.29;98853.94;129194;1105;23074;-65
2021/03/14 11:11:54;;;;;;;17.13;11.03;;;;;;;4.54;76.20;98860.62;129118;1104;22853;-65
2021/03/14 11:14:39;;;;;;;19.43;12.33;;;;;;;4.53;76.11;98854.40;129341;1105;22819;-65
2021/03/14 11:17:30;;;;;;;21.97;14.20;;;;;;;4.50;76.41;98845.95;129123;1106;22827;-64
2021/03/14 11:20:27;;;;;;;20.10;12.07;;;;;;;4.47;76.53;98847.23;129185;1105;24627;-65
2021/03/14 11:23:02;;;;;;;21.05;12.85;;;;;;;4.48;76.64;98838.09;129097;1105;22832;-64
2021/03/14 11:25:30;;;;;;;20.63;13.73;;;;;;;4.50;76.21;98843.25;129239;1105;22838;-64
2021/03/14 11:27:58;;;;;;;18.77;11.90;;;;;;;4.53;76.17;98838.22;129132;1105;23055;-67
2021/03/14 11:30:28;;;;;;;18.05;12.45;;;;;;;4.53;75.92;98823.91;129200;1105;22837;-66
2021/03/14 11:32:55;;;;;;;20.90;13.43;;;;;;;4.51;76.67;98828.71;129111;1105;22827;-65
2021/03/14 11:35:34;;;;;;;21.50;14.03;;;;;;;4.50;76.37;98809.01;129249;1105;22854;-65
2021/03/14 11:38:14;;;;;;;22.03;13.07;;;;;;;4.48;76.50;98819.20;129115;1105;23010;-65
2021/03/14 11:41:05;;;;;;;20.70;13.30;;;;;;;4.41;76.30;98805.05;129164;1105;23479;-65
2021/03/14 11:44:11;;;;;;;22.50;14.15;;;;;;;4.51;77.02;98823.31;128934;1105;23889;-65
2021/03/14 11:46:39;;;;;;;24.03;14.23;;;;;;;4.52;77.02;98814.17;126639;1105;23053;-65